sensor_id;sensor_type;location;lat;lon;timestamp;temperature;humidity
19908;DHT22;10116;53.112;7.356;2023-12-20T00:00:36;23.90;99.90
19908;DHT22;10116;53.112;7.356;2023-12-20T00:03:03;23.90;99.90
19908;DHT22;10116;53.112;7.356;2023-12-20T00:05:29;23.90;99.90
19908;DHT22;10116;53.112;7.356;2023-12-20T00:07:57;23.90;99.90
19908;DHT22;10116;53.112;7.356;2023-12-20T00:10:23;23.90;99.90
19908;DHT22;10116;53.112;7.356;2023-12-20T00:12:48;23.90;99.90
19908;DHT22;10116;53.112;7.356;2023-12-20T00:15:14;23.90;99.90
19908;DHT22;10116;53.112;7.356;2023-12-20T00:17:40;23.90;99.90
19908;DHT22;10116;53.112;7.356;2023-12-20T00:20:06;23.90;99.90
19908;DHT22;10116;53.112;7.356;2023-12-20T00:22:32;23.90;99.90
19908;DHT22;10116;53.112;7.356;2023-12-20T00:24:57;23.90;99.90
19908;DHT22;10116;53.112;7.356;2023-12-20T00:27:23;23.90;99.90
19908;DHT22;10116;53.112;7.356;2023-12-20T00:29:48;23.90;99.90
19908;DHT22;10116;53.112;7.356;2023-12-20T00:32:15;23.90;99.90
19908;DHT22;10116;53.112;7.356;2023-12-20T00:34:42;23.90;99.90
19908;DHT22;10116;53.112;7.356;2023-12-20T00:37:08;23.90;99.90
19908;DHT22;10116;53.112;7.356;2023-12-20T00:39:33;23.90;99.90
19908;DHT22;10116;53.112;7.356;2023-12-20T00:41:59;23.90;99.90
19908;DHT22;10116;53.112;7.356;2023-12-20T00:44:24;23.90;99.90
19908;DHT22;10116;53.112;7.356;2023-12-20T00:46:50;23.90;99.90
19908;DHT22;10116;53.112;7.356;2023-12-20T00:49:16;23.90;99.90
19908;DHT22;10116;53.112;7.356;2023-12-20T00:51:41;23.90;99.90
19908;DHT22;10116;53.112;7.356;2023-12-20T00:54:07;23.90;99.90
19908;DHT22;10116;53.112;7.356;2023-12-20T00:56:32;23.90;99.90
19908;DHT22;10116;53.112;7.356;2023-12-20T00:58:58;23.90;99.90
19908;DHT22;10116;53.112;7.356;2023-12-20T01:01:24;23.90;99.90
19908;DHT22;10116;53.112;7.356;2023-12-20T01:03:50;23.90;99.90
19908;DHT22;10116;53.112;7.356;2023-12-20T01:06:16;23.90;99.90
19908;DHT22;10116;53.112;7.356;2023-12-20T01:08:42;23.90;99.90
19908;DHT22;10116;53.112;7.356;2023-12-20T01:11:08;23.90;99.90
19908;DHT22;10116;53.112;7.356;2023-12-20T01:13:34;23.90;99.90
19908;DHT22;10116;53.112;7.356;2023-12-20T01:16:00;23.90;99.90
19908;DHT22;10116;53.112;7.356;2023-12-20T01:18:26;23.90;99.90
19908;DHT22;10116;53.112;7.356;2023-12-20T01:20:52;23.90;99.90
19908;DHT22;10116;53.112;7.356;2023-12-20T01:23:18;23.90;99.90
19908;DHT22;10116;53.112;7.356;2023-12-20T01:25:43;23.90;99.90
19908;DHT22;10116;53.112;7.356;2023-12-20T01:28:09;23.90;99.90
19908;DHT22;10116;53.112;7.356;2023-12-20T01:30:34;23.90;99.90
19908;DHT22;10116;53.112;7.356;2023-12-20T01:33:00;24.00;99.90
19908;DHT22;10116;53.112;7.356;2023-12-20T01:35:26;23.90;99.90
19908;DHT22;10116;53.112;7.356;2023-12-20T01:37:52;23.90;99.90
19908;DHT22;10116;53.112;7.356;2023-12-20T01:40:22;23.90;99.90
19908;DHT22;10116;53.112;7.356;2023-12-20T01:42:54;23.90;99.90
19908;DHT22;10116;53.112;7.356;2023-12-20T01:45:22;23.90;99.90
19908;DHT22;10116;53.112;7.356;2023-12-20T01:47:48;23.90;99.90
19908;DHT22;10116;53.112;7.356;2023-12-20T01:50:14;23.90;99.90
19908;DHT22;10116;53.112;7.356;2023-12-20T01:52:41;23.90;99.90
19908;DHT22;10116;53.112;7.356;2023-12-20T01:55:08;23.90;99.90
19908;DHT22;10116;53.112;7.356;2023-12-20T01:57:41;23.90;99.90
19908;DHT22;10116;53.112;7.356;2023-12-20T02:00:08;23.90;99.90
19908;DHT22;10116;53.112;7.356;2023-12-20T02:02:37;23.90;99.90
19908;DHT22;10116;53.112;7.356;2023-12-20T02:05:05;23.90;99.90
19908;DHT22;10116;53.112;7.356;2023-12-20T02:07:31;23.80;99.90
19908;DHT22;10116;53.112;7.356;2023-12-20T02:09:57;23.90;99.90
19908;DHT22;10116;53.112;7.356;2023-12-20T02:12:23;23.80;99.90
19908;DHT22;10116;53.112;7.356;2023-12-20T02:14:49;23.80;99.90
19908;DHT22;10116;53.112;7.356;2023-12-20T02:17:15;23.80;99.90
19908;DHT22;10116;53.112;7.356;2023-12-20T02:19:41;23.80;99.90
19908;DHT22;10116;53.112;7.356;2023-12-20T02:22:10;23.80;99.90
19908;DHT22;10116;53.112;7.356;2023-12-20T02:24:36;23.80;99.90
19908;DHT22;10116;53.112;7.356;2023-12-20T02:27:02;23.80;99.90
19908;DHT22;10116;53.112;7.356;2023-12-20T02:29:28;23.80;99.90
19908;DHT22;10116;53.112;7.356;2023-12-20T02:31:54;23.80;99.90
19908;DHT22;10116;53.112;7.356;2023-12-20T02:34:19;23.80;99.90
19908;DHT22;10116;53.112;7.356;2023-12-20T02:36:45;23.80;99.90
19908;DHT22;10116;53.112;7.356;2023-12-20T02:39:11;23.80;99.90
19908;DHT22;10116;53.112;7.356;2023-12-20T02:41:36;23.80;99.90
19908;DHT22;10116;53.112;7.356;2023-12-20T02:44:03;23.80;99.90
19908;DHT22;10116;53.112;7.356;2023-12-20T02:46:28;23.80;99.90
19908;DHT22;10116;53.112;7.356;2023-12-20T02:48:54;23.80;99.90
19908;DHT22;10116;53.112;7.356;2023-12-20T02:51:19;23.80;99.90
19908;DHT22;10116;53.112;7.356;2023-12-20T02:53:45;23.80;99.90
19908;DHT22;10116;53.112;7.356;2023-12-20T02:56:11;23.80;99.90
19908;DHT22;10116;53.112;7.356;2023-12-20T02:58:36;23.80;99.90
19908;DHT22;10116;53.112;7.356;2023-12-20T03:01:02;23.80;99.90
19908;DHT22;10116;53.112;7.356;2023-12-20T03:03:28;23.80;99.90
19908;DHT22;10116;53.112;7.356;2023-12-20T03:05:53;23.80;99.90
19908;DHT22;10116;53.112;7.356;2023-12-20T03:08:19;23.80;99.90
19908;DHT22;10116;53.112;7.356;2023-12-20T03:10:44;23.80;99.90
19908;DHT22;10116;53.112;7.356;2023-12-20T03:13:10;23.80;99.90
19908;DHT22;10116;53.112;7.356;2023-12-20T03:15:36;23.80;99.90
19908;DHT22;10116;53.112;7.356;2023-12-20T03:18:02;23.80;99.90
19908;DHT22;10116;53.112;7.356;2023-12-20T03:20:28;23.80;99.90
19908;DHT22;10116;53.112;7.356;2023-12-20T03:22:53;23.80;99.90
19908;DHT22;10116;53.112;7.356;2023-12-20T03:25:19;23.80;99.90
19908;DHT22;10116;53.112;7.356;2023-12-20T03:27:45;23.80;99.90
19908;DHT22;10116;53.112;7.356;2023-12-20T03:30:10;23.80;99.90
19908;DHT22;10116;53.112;7.356;2023-12-20T03:32:37;23.80;99.90
19908;DHT22;10116;53.112;7.356;2023-12-20T03:35:03;23.80;99.90
19908;DHT22;10116;53.112;7.356;2023-12-20T03:37:29;23.80;99.90
19908;DHT22;10116;53.112;7.356;2023-12-20T03:39:55;23.80;99.90
19908;DHT22;10116;53.112;7.356;2023-12-20T03:42:20;23.80;99.90
19908;DHT22;10116;53.112;7.356;2023-12-20T03:44:46;23.80;99.90
19908;DHT22;10116;53.112;7.356;2023-12-20T03:47:12;23.80;99.90
19908;DHT22;10116;53.112;7.356;2023-12-20T03:49:37;23.80;99.90
19908;DHT22;10116;53.112;7.356;2023-12-20T03:52:04;23.80;99.90
19908;DHT22;10116;53.112;7.356;2023-12-20T03:54:30;23.80;99.90
19908;DHT22;10116;53.112;7.356;2023-12-20T03:56:55;23.80;99.90
19908;DHT22;10116;53.112;7.356;2023-12-20T03:59:22;23.80;99.90
19908;DHT22;10116;53.112;7.356;2023-12-20T04:01:47;23.80;99.90
19908;DHT22;10116;53.112;7.356;2023-12-20T04:04:13;23.80;99.90
19908;DHT22;10116;53.112;7.356;2023-12-20T04:06:39;23.80;99.90
19908;DHT22;10116;53.112;7.356;2023-12-20T04:09:05;23.80;99.90
19908;DHT22;10116;53.112;7.356;2023-12-20T04:11:30;23.80;99.90
19908;DHT22;10116;53.112;7.356;2023-12-20T04:13:56;23.80;99.90
19908;DHT22;10116;53.112;7.356;2023-12-20T04:16:22;23.80;99.90
19908;DHT22;10116;53.112;7.356;2023-12-20T04:18:47;23.80;99.90
19908;DHT22;10116;53.112;7.356;2023-12-20T04:21:13;23.80;99.90
19908;DHT22;10116;53.112;7.356;2023-12-20T04:23:38;23.80;99.90
19908;DHT22;10116;53.112;7.356;2023-12-20T04:26:04;23.80;99.90
19908;DHT22;10116;53.112;7.356;2023-12-20T04:28:30;23.80;99.90
19908;DHT22;10116;53.112;7.356;2023-12-20T04:30:56;23.80;99.90
19908;DHT22;10116;53.112;7.356;2023-12-20T04:33:22;23.90;99.90
19908;DHT22;10116;53.112;7.356;2023-12-20T04:35:48;23.90;99.90
19908;DHT22;10116;53.112;7.356;2023-12-20T04:38:14;24.00;99.90
19908;DHT22;10116;53.112;7.356;2023-12-20T04:40:39;24.00;99.90
19908;DHT22;10116;53.112;7.356;2023-12-20T04:43:07;24.00;99.90
19908;DHT22;10116;53.112;7.356;2023-12-20T04:45:33;24.10;99.90
19908;DHT22;10116;53.112;7.356;2023-12-20T04:47:58;24.10;99.90
19908;DHT22;10116;53.112;7.356;2023-12-20T04:50:24;24.10;99.90
19908;DHT22;10116;53.112;7.356;2023-12-20T04:52:50;24.10;99.90
19908;DHT22;10116;53.112;7.356;2023-12-20T04:55:16;24.10;99.90
19908;DHT22;10116;53.112;7.356;2023-12-20T04:57:41;24.10;99.90
19908;DHT22;10116;53.112;7.356;2023-12-20T05:00:08;24.20;99.90
19908;DHT22;10116;53.112;7.356;2023-12-20T05:02:37;24.20;99.90
19908;DHT22;10116;53.112;7.356;2023-12-20T05:05:03;24.10;99.90
19908;DHT22;10116;53.112;7.356;2023-12-20T05:07:28;24.10;99.90
19908;DHT22;10116;53.112;7.356;2023-12-20T05:09:54;24.10;99.90
19908;DHT22;10116;53.112;7.356;2023-12-20T05:12:20;24.10;99.90
19908;DHT22;10116;53.112;7.356;2023-12-20T05:14:46;24.10;99.90
19908;DHT22;10116;53.112;7.356;2023-12-20T05:17:12;24.10;99.90
19908;DHT22;10116;53.112;7.356;2023-12-20T05:19:37;24.10;99.90
19908;DHT22;10116;53.112;7.356;2023-12-20T05:22:03;24.10;99.90
19908;DHT22;10116;53.112;7.356;2023-12-20T05:24:29;24.10;99.90
19908;DHT22;10116;53.112;7.356;2023-12-20T05:26:55;24.10;99.90
19908;DHT22;10116;53.112;7.356;2023-12-20T05:29:20;24.10;99.90
19908;DHT22;10116;53.112;7.356;2023-12-20T05:31:46;24.10;99.90
19908;DHT22;10116;53.112;7.356;2023-12-20T05:34:12;24.10;99.90
19908;DHT22;10116;53.112;7.356;2023-12-20T05:36:37;24.10;99.90
19908;DHT22;10116;53.112;7.356;2023-12-20T05:39:04;24.10;99.90
19908;DHT22;10116;53.112;7.356;2023-12-20T05:41:30;24.10;99.90
19908;DHT22;10116;53.112;7.356;2023-12-20T05:43:56;24.10;99.90
19908;DHT22;10116;53.112;7.356;2023-12-20T05:46:25;24.10;99.90
19908;DHT22;10116;53.112;7.356;2023-12-20T05:48:51;24.10;99.90
19908;DHT22;10116;53.112;7.356;2023-12-20T05:51:17;24.10;99.90
19908;DHT22;10116;53.112;7.356;2023-12-20T05:53:43;24.20;99.90
19908;DHT22;10116;53.112;7.356;2023-12-20T05:56:09;24.20;99.90
19908;DHT22;10116;53.112;7.356;2023-12-20T05:58:35;24.30;99.90
19908;DHT22;10116;53.112;7.356;2023-12-20T06:01:04;24.30;99.90
19908;DHT22;10116;53.112;7.356;2023-12-20T06:03:30;24.30;99.90
19908;DHT22;10116;53.112;7.356;2023-12-20T06:05:56;24.30;99.90
19908;DHT22;10116;53.112;7.356;2023-12-20T06:08:21;24.30;99.90
19908;DHT22;10116;53.112;7.356;2023-12-20T06:10:47;24.30;99.90
19908;DHT22;10116;53.112;7.356;2023-12-20T06:13:13;24.30;99.90
19908;DHT22;10116;53.112;7.356;2023-12-20T06:15:39;24.30;99.90
19908;DHT22;10116;53.112;7.356;2023-12-20T06:18:08;24.30;99.90
19908;DHT22;10116;53.112;7.356;2023-12-20T06:20:33;24.30;99.90
19908;DHT22;10116;53.112;7.356;2023-12-20T06:22:59;24.30;99.90
19908;DHT22;10116;53.112;7.356;2023-12-20T06:25:25;24.30;99.90
19908;DHT22;10116;53.112;7.356;2023-12-20T06:27:50;24.30;99.90
19908;DHT22;10116;53.112;7.356;2023-12-20T06:30:16;24.30;99.90
19908;DHT22;10116;53.112;7.356;2023-12-20T06:32:42;24.30;99.90
19908;DHT22;10116;53.112;7.356;2023-12-20T06:35:09;24.30;99.90
19908;DHT22;10116;53.112;7.356;2023-12-20T06:37:35;24.30;99.90
19908;DHT22;10116;53.112;7.356;2023-12-20T06:40:01;24.30;99.90
19908;DHT22;10116;53.112;7.356;2023-12-20T06:42:26;24.30;99.90
19908;DHT22;10116;53.112;7.356;2023-12-20T06:44:52;24.30;99.90
19908;DHT22;10116;53.112;7.356;2023-12-20T06:47:18;24.30;99.90
19908;DHT22;10116;53.112;7.356;2023-12-20T06:49:43;24.30;99.90
19908;DHT22;10116;53.112;7.356;2023-12-20T06:52:09;24.30;99.90
19908;DHT22;10116;53.112;7.356;2023-12-20T06:54:35;24.20;99.90
19908;DHT22;10116;53.112;7.356;2023-12-20T06:57:01;24.10;99.90
19908;DHT22;10116;53.112;7.356;2023-12-20T06:59:29;24.10;99.90
19908;DHT22;10116;53.112;7.356;2023-12-20T07:01:54;24.10;99.90
19908;DHT22;10116;53.112;7.356;2023-12-20T07:04:20;24.10;99.90
19908;DHT22;10116;53.112;7.356;2023-12-20T07:06:48;24.00;98.90
19908;DHT22;10116;53.112;7.356;2023-12-20T07:09:14;23.80;98.80
19908;DHT22;10116;53.112;7.356;2023-12-20T07:11:39;23.80;97.70
19908;DHT22;10116;53.112;7.356;2023-12-20T07:14:05;23.70;97.40
19908;DHT22;10116;53.112;7.356;2023-12-20T07:16:31;23.70;97.60
19908;DHT22;10116;53.112;7.356;2023-12-20T07:18:57;23.70;97.90
19908;DHT22;10116;53.112;7.356;2023-12-20T07:21:23;23.70;97.00
19908;DHT22;10116;53.112;7.356;2023-12-20T07:23:48;23.70;97.40
19908;DHT22;10116;53.112;7.356;2023-12-20T07:26:14;23.80;98.00
19908;DHT22;10116;53.112;7.356;2023-12-20T07:28:40;23.80;98.20
19908;DHT22;10116;53.112;7.356;2023-12-20T07:31:06;23.90;98.40
19908;DHT22;10116;53.112;7.356;2023-12-20T07:33:31;23.90;98.70
19908;DHT22;10116;53.112;7.356;2023-12-20T07:35:59;23.90;99.20
19908;DHT22;10116;53.112;7.356;2023-12-20T07:38:24;23.90;98.70
19908;DHT22;10116;53.112;7.356;2023-12-20T07:40:50;23.90;98.70
19908;DHT22;10116;53.112;7.356;2023-12-20T07:43:16;23.90;99.50
19908;DHT22;10116;53.112;7.356;2023-12-20T07:45:42;23.90;98.70
19908;DHT22;10116;53.112;7.356;2023-12-20T07:48:07;23.90;98.40
19908;DHT22;10116;53.112;7.356;2023-12-20T07:50:34;23.90;98.20
19908;DHT22;10116;53.112;7.356;2023-12-20T07:52:59;23.80;97.30
19908;DHT22;10116;53.112;7.356;2023-12-20T07:55:26;23.70;97.00
19908;DHT22;10116;53.112;7.356;2023-12-20T07:57:52;23.60;96.30
19908;DHT22;10116;53.112;7.356;2023-12-20T08:00:18;23.60;95.80
19908;DHT22;10116;53.112;7.356;2023-12-20T08:02:44;23.50;95.20
19908;DHT22;10116;53.112;7.356;2023-12-20T08:05:10;23.40;94.80
19908;DHT22;10116;53.112;7.356;2023-12-20T08:07:36;23.40;94.50
19908;DHT22;10116;53.112;7.356;2023-12-20T08:10:02;23.40;94.80
19908;DHT22;10116;53.112;7.356;2023-12-20T08:12:28;23.30;94.50
19908;DHT22;10116;53.112;7.356;2023-12-20T08:14:54;23.30;94.00
19908;DHT22;10116;53.112;7.356;2023-12-20T08:17:20;23.20;93.60
19908;DHT22;10116;53.112;7.356;2023-12-20T08:19:46;23.20;93.40
19908;DHT22;10116;53.112;7.356;2023-12-20T08:22:11;23.20;93.20
19908;DHT22;10116;53.112;7.356;2023-12-20T08:24:37;23.10;93.30
19908;DHT22;10116;53.112;7.356;2023-12-20T08:27:04;23.10;92.60
19908;DHT22;10116;53.112;7.356;2023-12-20T08:29:30;23.10;92.40
19908;DHT22;10116;53.112;7.356;2023-12-20T08:31:56;23.10;92.30
19908;DHT22;10116;53.112;7.356;2023-12-20T08:34:22;23.00;92.20
19908;DHT22;10116;53.112;7.356;2023-12-20T08:36:50;23.00;92.20
19908;DHT22;10116;53.112;7.356;2023-12-20T08:39:15;23.00;91.60
19908;DHT22;10116;53.112;7.356;2023-12-20T08:41:41;22.90;91.30
19908;DHT22;10116;53.112;7.356;2023-12-20T08:44:06;22.90;91.30
19908;DHT22;10116;53.112;7.356;2023-12-20T08:46:32;22.90;91.50
19908;DHT22;10116;53.112;7.356;2023-12-20T08:48:58;22.90;90.70
19908;DHT22;10116;53.112;7.356;2023-12-20T08:51:23;22.80;91.00
19908;DHT22;10116;53.112;7.356;2023-12-20T08:53:51;22.80;90.60
19908;DHT22;10116;53.112;7.356;2023-12-20T08:56:17;22.80;90.80
19908;DHT22;10116;53.112;7.356;2023-12-20T08:58:44;22.70;91.00
19908;DHT22;10116;53.112;7.356;2023-12-20T09:01:10;22.60;89.90
19908;DHT22;10116;53.112;7.356;2023-12-20T09:03:35;22.60;90.20
19908;DHT22;10116;53.112;7.356;2023-12-20T09:06:01;22.60;90.10
19908;DHT22;10116;53.112;7.356;2023-12-20T09:08:26;22.60;89.00
19908;DHT22;10116;53.112;7.356;2023-12-20T09:10:52;22.50;88.10
19908;DHT22;10116;53.112;7.356;2023-12-20T09:13:17;22.50;89.40
19908;DHT22;10116;53.112;7.356;2023-12-20T09:15:43;22.60;89.40
19908;DHT22;10116;53.112;7.356;2023-12-20T09:18:09;22.70;90.40
19908;DHT22;10116;53.112;7.356;2023-12-20T09:20:35;22.80;91.30
19908;DHT22;10116;53.112;7.356;2023-12-20T09:23:01;22.90;92.30
19908;DHT22;10116;53.112;7.356;2023-12-20T09:25:26;23.00;92.60
19908;DHT22;10116;53.112;7.356;2023-12-20T09:27:52;23.10;93.50
19908;DHT22;10116;53.112;7.356;2023-12-20T09:30:19;23.20;94.60
19908;DHT22;10116;53.112;7.356;2023-12-20T09:32:45;23.20;94.60
19908;DHT22;10116;53.112;7.356;2023-12-20T09:35:11;23.30;95.30
19908;DHT22;10116;53.112;7.356;2023-12-20T09:37:36;23.30;95.60
19908;DHT22;10116;53.112;7.356;2023-12-20T09:40:03;23.40;96.10
19908;DHT22;10116;53.112;7.356;2023-12-20T09:42:48;23.50;96.40
19908;DHT22;10116;53.112;7.356;2023-12-20T09:45:20;23.50;96.80
19908;DHT22;10116;53.112;7.356;2023-12-20T09:47:48;23.50;97.00
19908;DHT22;10116;53.112;7.356;2023-12-20T09:50:14;23.50;96.80
19908;DHT22;10116;53.112;7.356;2023-12-20T09:52:40;23.60;97.20
19908;DHT22;10116;53.112;7.356;2023-12-20T09:55:07;23.60;97.50
19908;DHT22;10116;53.112;7.356;2023-12-20T09:57:33;23.60;97.60
19908;DHT22;10116;53.112;7.356;2023-12-20T09:59:59;23.60;97.30
19908;DHT22;10116;53.112;7.356;2023-12-20T10:02:25;23.70;98.00
19908;DHT22;10116;53.112;7.356;2023-12-20T10:04:55;23.60;97.80
19908;DHT22;10116;53.112;7.356;2023-12-20T10:07:21;23.60;97.60
19908;DHT22;10116;53.112;7.356;2023-12-20T10:09:48;23.70;98.10
19908;DHT22;10116;53.112;7.356;2023-12-20T10:12:14;23.70;97.80
19908;DHT22;10116;53.112;7.356;2023-12-20T10:14:39;23.70;98.20
19908;DHT22;10116;53.112;7.356;2023-12-20T10:17:06;23.70;97.70
19908;DHT22;10116;53.112;7.356;2023-12-20T10:19:35;23.70;99.90
19908;DHT22;10116;53.112;7.356;2023-12-20T10:22:03;23.70;98.00
19908;DHT22;10116;53.112;7.356;2023-12-20T10:24:29;23.70;97.90
19908;DHT22;10116;53.112;7.356;2023-12-20T10:27:08;23.80;98.00
19908;DHT22;10116;53.112;7.356;2023-12-20T10:29:37;23.70;97.80
19908;DHT22;10116;53.112;7.356;2023-12-20T10:32:23;23.70;97.90
19908;DHT22;10116;53.112;7.356;2023-12-20T10:34:53;23.80;97.80
19908;DHT22;10116;53.112;7.356;2023-12-20T10:37:19;23.70;97.50
19908;DHT22;10116;53.112;7.356;2023-12-20T10:39:50;23.80;97.60
19908;DHT22;10116;53.112;7.356;2023-12-20T10:42:16;23.70;97.60
19908;DHT22;10116;53.112;7.356;2023-12-20T10:44:42;23.70;98.00
19908;DHT22;10116;53.112;7.356;2023-12-20T10:47:09;23.80;97.70
19908;DHT22;10116;53.112;7.356;2023-12-20T10:49:37;23.80;98.30
19908;DHT22;10116;53.112;7.356;2023-12-20T10:52:05;23.80;98.20
19908;DHT22;10116;53.112;7.356;2023-12-20T10:54:31;23.80;97.90
19908;DHT22;10116;53.112;7.356;2023-12-20T10:56:58;23.80;97.80
19908;DHT22;10116;53.112;7.356;2023-12-20T10:59:24;23.70;97.40
19908;DHT22;10116;53.112;7.356;2023-12-20T11:01:50;22.80;91.00
19908;DHT22;10116;53.112;7.356;2023-12-20T11:07:29;21.10;60.80
19908;DHT22;10116;53.112;7.356;2023-12-20T11:10:29;20.30;51.30
19908;DHT22;10116;53.112;7.356;2023-12-20T11:13:22;19.60;42.70
19908;DHT22;10116;53.112;7.356;2023-12-20T11:15:49;19.00;37.40
19908;DHT22;10116;53.112;7.356;2023-12-20T11:18:15;18.60;31.70
19908;DHT22;10116;53.112;7.356;2023-12-20T11:20:41;18.20;28.30
19908;DHT22;10116;53.112;7.356;2023-12-20T11:23:08;17.90;26.10
19908;DHT22;10116;53.112;7.356;2023-12-20T11:25:49;17.70;24.50
19908;DHT22;10116;53.112;7.356;2023-12-20T11:28:21;17.50;24.30
19908;DHT22;10116;53.112;7.356;2023-12-20T11:30:48;17.40;25.40
19908;DHT22;10116;53.112;7.356;2023-12-20T11:33:15;17.70;24.60
19908;DHT22;10116;53.112;7.356;2023-12-20T11:35:41;18.10;28.20
19908;DHT22;10116;53.112;7.356;2023-12-20T11:38:09;18.40;31.60
19908;DHT22;10116;53.112;7.356;2023-12-20T11:40:35;18.80;35.90
19908;DHT22;10116;53.112;7.356;2023-12-20T11:43:02;19.20;41.20
19908;DHT22;10116;53.112;7.356;2023-12-20T11:45:27;19.50;44.70
19908;DHT22;10116;53.112;7.356;2023-12-20T11:47:53;19.90;49.70
19908;DHT22;10116;53.112;7.356;2023-12-20T11:50:21;20.20;54.50
19908;DHT22;10116;53.112;7.356;2023-12-20T11:52:48;20.50;58.00
19908;DHT22;10116;53.112;7.356;2023-12-20T11:55:14;20.70;59.90
19908;DHT22;10116;53.112;7.356;2023-12-20T11:57:39;20.80;61.60
19908;DHT22;10116;53.112;7.356;2023-12-20T12:00:06;21.00;64.10
19908;DHT22;10116;53.112;7.356;2023-12-20T12:02:32;21.10;66.50
19908;DHT22;10116;53.112;7.356;2023-12-20T12:04:59;21.30;68.90
19908;DHT22;10116;53.112;7.356;2023-12-20T12:07:25;21.40;70.40
19908;DHT22;10116;53.112;7.356;2023-12-20T12:09:50;21.40;73.10
19908;DHT22;10116;53.112;7.356;2023-12-20T12:12:17;21.50;73.30
19908;DHT22;10116;53.112;7.356;2023-12-20T12:14:44;21.60;75.20
19908;DHT22;10116;53.112;7.356;2023-12-20T12:17:14;21.70;76.10
19908;DHT22;10116;53.112;7.356;2023-12-20T12:19:43;21.80;78.10
19908;DHT22;10116;53.112;7.356;2023-12-20T12:22:09;21.80;78.60
19908;DHT22;10116;53.112;7.356;2023-12-20T12:24:43;21.90;81.20
19908;DHT22;10116;53.112;7.356;2023-12-20T12:27:10;22.00;81.90
19908;DHT22;10116;53.112;7.356;2023-12-20T12:29:36;22.10;83.50
19908;DHT22;10116;53.112;7.356;2023-12-20T12:32:06;22.10;84.70
19908;DHT22;10116;53.112;7.356;2023-12-20T12:34:33;22.20;85.10
19908;DHT22;10116;53.112;7.356;2023-12-20T12:36:59;22.30;85.90
19908;DHT22;10116;53.112;7.356;2023-12-20T12:39:25;22.30;86.70
19908;DHT22;10116;53.112;7.356;2023-12-20T12:41:51;22.40;87.50
19908;DHT22;10116;53.112;7.356;2023-12-20T12:44:17;22.40;88.60
19908;DHT22;10116;53.112;7.356;2023-12-20T12:46:44;22.50;89.80
19908;DHT22;10116;53.112;7.356;2023-12-20T12:49:10;22.60;90.20
19908;DHT22;10116;53.112;7.356;2023-12-20T12:51:35;22.80;91.50
19908;DHT22;10116;53.112;7.356;2023-12-20T12:54:01;22.90;92.90
19908;DHT22;10116;53.112;7.356;2023-12-20T12:56:27;23.00;93.50
19908;DHT22;10116;53.112;7.356;2023-12-20T12:58:53;23.00;93.30
19908;DHT22;10116;53.112;7.356;2023-12-20T13:01:18;23.10;93.10
19908;DHT22;10116;53.112;7.356;2023-12-20T13:03:44;23.10;93.40
19908;DHT22;10116;53.112;7.356;2023-12-20T13:06:10;23.10;93.30
19908;DHT22;10116;53.112;7.356;2023-12-20T13:08:36;23.10;93.30
19908;DHT22;10116;53.112;7.356;2023-12-20T13:11:01;23.10;94.20
19908;DHT22;10116;53.112;7.356;2023-12-20T13:13:29;23.10;93.40
19908;DHT22;10116;53.112;7.356;2023-12-20T13:15:55;23.10;93.80
19908;DHT22;10116;53.112;7.356;2023-12-20T13:18:22;23.10;93.50
19908;DHT22;10116;53.112;7.356;2023-12-20T13:20:48;23.20;93.30
19908;DHT22;10116;53.112;7.356;2023-12-20T13:23:14;23.20;93.20
19908;DHT22;10116;53.112;7.356;2023-12-20T13:25:41;23.20;93.20
19908;DHT22;10116;53.112;7.356;2023-12-20T13:28:07;23.20;93.30
19908;DHT22;10116;53.112;7.356;2023-12-20T13:30:34;23.20;92.90
19908;DHT22;10116;53.112;7.356;2023-12-20T13:32:59;23.20;93.10
19908;DHT22;10116;53.112;7.356;2023-12-20T13:35:25;23.20;93.10
19908;DHT22;10116;53.112;7.356;2023-12-20T13:37:51;23.20;93.10
19908;DHT22;10116;53.112;7.356;2023-12-20T13:40:17;23.20;92.80
19908;DHT22;10116;53.112;7.356;2023-12-20T13:42:43;23.20;93.40
19908;DHT22;10116;53.112;7.356;2023-12-20T13:45:09;23.30;93.10
19908;DHT22;10116;53.112;7.356;2023-12-20T13:47:35;23.30;93.70
19908;DHT22;10116;53.112;7.356;2023-12-20T13:50:03;23.30;93.60
19908;DHT22;10116;53.112;7.356;2023-12-20T13:52:29;23.30;93.20
19908;DHT22;10116;53.112;7.356;2023-12-20T13:54:55;23.30;93.20
19908;DHT22;10116;53.112;7.356;2023-12-20T13:57:21;23.30;93.40
19908;DHT22;10116;53.112;7.356;2023-12-20T13:59:46;23.30;93.40
19908;DHT22;10116;53.112;7.356;2023-12-20T14:02:12;23.30;93.30
19908;DHT22;10116;53.112;7.356;2023-12-20T14:04:37;23.30;93.50
19908;DHT22;10116;53.112;7.356;2023-12-20T14:07:05;23.30;93.60
19908;DHT22;10116;53.112;7.356;2023-12-20T14:09:30;23.30;93.40
19908;DHT22;10116;53.112;7.356;2023-12-20T14:11:56;23.30;93.60
19908;DHT22;10116;53.112;7.356;2023-12-20T14:14:22;23.30;93.30
19908;DHT22;10116;53.112;7.356;2023-12-20T14:16:47;23.30;93.20
19908;DHT22;10116;53.112;7.356;2023-12-20T14:19:13;23.30;93.60
19908;DHT22;10116;53.112;7.356;2023-12-20T14:21:38;23.30;93.60
19908;DHT22;10116;53.112;7.356;2023-12-20T14:24:04;23.40;94.00
19908;DHT22;10116;53.112;7.356;2023-12-20T14:26:30;23.40;94.20
19908;DHT22;10116;53.112;7.356;2023-12-20T14:28:57;23.60;95.60
19908;DHT22;10116;53.112;7.356;2023-12-20T14:31:23;23.60;96.30
19908;DHT22;10116;53.112;7.356;2023-12-20T14:33:50;23.60;95.80
19908;DHT22;10116;53.112;7.356;2023-12-20T14:36:16;23.60;95.60
19908;DHT22;10116;53.112;7.356;2023-12-20T14:38:43;23.70;96.50
19908;DHT22;10116;53.112;7.356;2023-12-20T14:41:09;23.80;97.00
19908;DHT22;10116;53.112;7.356;2023-12-20T14:43:35;23.80;96.40
19908;DHT22;10116;53.112;7.356;2023-12-20T14:46:00;23.80;97.10
19908;DHT22;10116;53.112;7.356;2023-12-20T14:48:26;23.90;97.10
19908;DHT22;10116;53.112;7.356;2023-12-20T14:50:53;23.90;97.60
19908;DHT22;10116;53.112;7.356;2023-12-20T14:53:19;23.90;96.80
19908;DHT22;10116;53.112;7.356;2023-12-20T14:55:45;23.80;96.30
19908;DHT22;10116;53.112;7.356;2023-12-20T14:58:11;23.80;95.60
19908;DHT22;10116;53.112;7.356;2023-12-20T15:00:37;23.70;99.90
19908;DHT22;10116;53.112;7.356;2023-12-20T15:03:03;23.70;95.10
19908;DHT22;10116;53.112;7.356;2023-12-20T15:05:30;23.70;94.90
19908;DHT22;10116;53.112;7.356;2023-12-20T15:07:56;23.70;94.70
19908;DHT22;10116;53.112;7.356;2023-12-20T15:10:22;23.70;94.70
19908;DHT22;10116;53.112;7.356;2023-12-20T15:12:47;23.70;94.60
19908;DHT22;10116;53.112;7.356;2023-12-20T15:15:13;23.70;94.90
19908;DHT22;10116;53.112;7.356;2023-12-20T15:17:39;23.60;94.70
19908;DHT22;10116;53.112;7.356;2023-12-20T15:20:05;23.60;94.50
19908;DHT22;10116;53.112;7.356;2023-12-20T15:22:31;23.60;94.00
19908;DHT22;10116;53.112;7.356;2023-12-20T15:24:59;23.60;95.00
19908;DHT22;10116;53.112;7.356;2023-12-20T15:27:25;23.60;94.20